»·PEaware :: UAL1399 KABQ-KLAX

UAL1399 :: KABQ-KLAX

FLIGHT INFORMATION

Flight Status: Arrived
Operator:
United Airlines
More flights by this operator :: More flights under this callsign
Pilot: David C. (16084)
Aircraft: AIRBUS A320
(A320)
More flights by this aircraft type
Origin: KABQ Albuquerque Intl Sunport
United States
Destination: KLAX Los Angeles Intl
United States
More flights between these airports :: More routes between these airports
Route: +RDRNR3 ZUN J6 DRK HIPPI GABBL HLYWD1
File this flight plan on PilotEdge
Remarks:
Altitude:
(Current/Filed)
38,000ft
Speed:
(Current/Filed)
465kts
Departed: 02-Jul-18 08:58 AM
Arrived: 02-Jul-18 10:27 AM
Distance/Time
Traveled:
586nm/1:29
Distance/Time
To Go:
Arrived

Flight Plot

Page will automatically refresh every two minutes.

Flight plan parsing failed; only flown route is shown


Map Options




Map Legend


Flown Route
Filed Route
Departure Airport
Arrival Airport
Navaid (VOR, NDB)
Fix

Horizontal Profiles

Position Reports

Time Latitude Longitude Heading Altitude Ground
Speed
02-Jul-18 08:27 35.047869 -106.614754 0 5363ft 0kts
02-Jul-18 08:28 35.047869 -106.614754 180 5363ft 0kts
02-Jul-18 08:29 35.047869 -106.614754 180 5363ft 0kts
02-Jul-18 08:30 35.047869 -106.614754 180 5363ft 0kts
02-Jul-18 08:31 35.047869 -106.614754 180 5363ft 0kts
02-Jul-18 08:32 35.047869 -106.614754 180 5363ft 0kts
02-Jul-18 08:33 35.047869 -106.614754 180 5363ft 0kts
02-Jul-18 08:34 35.047869 -106.614754 180 5363ft 0kts
02-Jul-18 08:35 35.047869 -106.614754 180 5363ft 0kts
02-Jul-18 08:36 35.047869 -106.614754 180 5363ft 0kts
02-Jul-18 08:37 35.047869 -106.614754 180 5363ft 0kts
02-Jul-18 08:38 35.047869 -106.614754 180 5363ft 0kts
02-Jul-18 08:39 35.047869 -106.614754 180 5363ft 0kts
02-Jul-18 08:40 35.047870 -106.614754 180 5363ft 0kts
02-Jul-18 08:41 35.048257 -106.614847 175 5363ft 2kts
02-Jul-18 08:42 35.048479 -106.615202 90 5363ft 0kts
02-Jul-18 08:43 35.048479 -106.615202 90 5363ft 0kts
02-Jul-18 08:44 35.048479 -106.615202 90 5363ft 0kts
02-Jul-18 08:45 35.048479 -106.615202 90 5363ft 0kts
02-Jul-18 08:46 35.048479 -106.615202 90 5363ft 0kts
02-Jul-18 08:47 35.048479 -106.615202 90 5363ft 0kts
02-Jul-18 08:48 35.048478 -106.615117 90 5363ft 0kts
02-Jul-18 08:49 35.048478 -106.615095 90 5363ft 0kts
02-Jul-18 08:50 35.048478 -106.615095 90 5363ft 0kts
02-Jul-18 08:51 35.048478 -106.615095 90 5363ft 0kts
02-Jul-18 08:52 35.048478 -106.615095 90 5363ft 0kts
02-Jul-18 08:53 35.048438 -106.613618 101 5363ft 12kts
02-Jul-18 08:54 35.045526 -106.614653 270 5363ft 16kts
02-Jul-18 08:55 35.045494 -106.621126 234 5363ft 9kts
02-Jul-18 08:56 35.045329 -106.621279 200 5363ft 0kts
02-Jul-18 08:57 35.044716 -106.621360 168 5363ft 7kts
02-Jul-18 08:58 35.044310 -106.605458 89 5363ft 152kts
02-Jul-18 08:59 35.044998 -106.538397 70 7009ft 231kts
02-Jul-18 09:00 35.096072 -106.528396 301 9642ft 232kts
02-Jul-18 09:01 35.098298 -106.614117 265 11512ft 293kts
02-Jul-18 09:02 35.093078 -106.726035 265 12750ft 364kts
02-Jul-18 09:03 35.106287 -106.857372 279 13791ft 412kts
02-Jul-18 09:04 35.092290 -106.996690 256 15346ft 429kts
02-Jul-18 09:05 35.064935 -107.131936 256 16626ft 446kts
02-Jul-18 09:06 35.037518 -107.279828 265 18166ft 455kts
02-Jul-18 09:08 35.032386 -107.432621 268 20000ft 451kts
02-Jul-18 09:09 35.027422 -107.586398 268 21329ft 457kts
02-Jul-18 09:10 35.022237 -107.741125 267 22471ft 464kts
02-Jul-18 09:11 35.016742 -107.898955 267 23560ft 469kts
02-Jul-18 09:12 35.010981 -108.058498 267 24521ft 474kts
02-Jul-18 09:13 35.005013 -108.217634 267 25853ft 468kts
02-Jul-18 09:14 34.998863 -108.376606 266 26818ft 470kts
02-Jul-18 09:15 34.992547 -108.534140 266 28064ft 464kts
02-Jul-18 09:16 34.986187 -108.688348 265 29076ft 461kts
02-Jul-18 09:17 34.979630 -108.841969 264 30492ft 455kts
02-Jul-18 09:18 34.972947 -108.994463 264 31630ft 455kts
02-Jul-18 09:19 34.965846 -109.151952 264 31879ft 474kts
02-Jul-18 09:20 34.955483 -109.309872 266 33104ft 464kts
02-Jul-18 09:21 34.944948 -109.466766 266 33956ft 463kts
02-Jul-18 09:22 34.934317 -109.621990 266 34778ft 460kts
02-Jul-18 09:23 34.923595 -109.775657 265 35531ft 457kts
02-Jul-18 09:24 34.912644 -109.929803 265 36205ft 455kts
02-Jul-18 09:25 34.901562 -110.083136 265 36775ft 455kts
02-Jul-18 09:26 34.890341 -110.235360 264 37220ft 455kts
02-Jul-18 09:27 34.878859 -110.388786 264 37597ft 456kts
02-Jul-18 09:28 34.867195 -110.541956 264 37942ft 456kts
02-Jul-18 09:29 34.855348 -110.694822 264 38253ft 456kts
02-Jul-18 09:30 34.843245 -110.848467 264 38275ft 456kts
02-Jul-18 09:31 34.831023 -111.001155 264 38273ft 456kts
02-Jul-18 09:32 34.818457 -111.155755 265 38267ft 461kts
02-Jul-18 09:33 34.805602 -111.311349 265 38360ft 464kts
02-Jul-18 09:34 34.792514 -111.467263 265 38357ft 465kts
02-Jul-18 09:35 34.779174 -111.623753 265 38309ft 465kts
02-Jul-18 09:36 34.765735 -111.779065 264 38296ft 464kts
02-Jul-18 09:37 34.752074 -111.934613 264 38289ft 464kts
02-Jul-18 09:38 34.738172 -112.090585 264 38286ft 464kts
02-Jul-18 09:39 34.724069 -112.246518 264 38291ft 464kts
02-Jul-18 09:40 34.709911 -112.400878 264 38294ft 463kts
02-Jul-18 09:41 34.693738 -112.555941 263 38295ft 463kts
02-Jul-18 09:42 34.675699 -112.709653 262 38294ft 463kts
02-Jul-18 09:43 34.657325 -112.864429 262 38295ft 463kts
02-Jul-18 09:44 34.638749 -113.019222 262 38289ft 465kts
02-Jul-18 09:45 34.619873 -113.174796 262 38274ft 466kts
02-Jul-18 09:46 34.600852 -113.329867 262 38265ft 466kts
02-Jul-18 09:47 34.581568 -113.485398 262 38214ft 466kts
02-Jul-18 09:48 34.562086 -113.640876 262 38114ft 466kts
02-Jul-18 09:49 34.544931 -113.795785 263 38016ft 466kts
02-Jul-18 09:50 34.527534 -113.951490 263 38024ft 466kts
02-Jul-18 09:50 34.510632 -114.080140 256 38026ft 467kts
02-Jul-18 09:51 34.479291 -114.228359 256 38026ft 467kts
02-Jul-18 09:52 34.446943 -114.380478 256 38024ft 467kts
02-Jul-18 09:53 34.414392 -114.532535 256 38025ft 467kts
02-Jul-18 09:54 34.381905 -114.683316 255 38031ft 467kts
02-Jul-18 09:55 34.349100 -114.834579 255 38031ft 467kts
02-Jul-18 09:56 34.316008 -114.986116 255 38035ft 467kts
02-Jul-18 09:58 34.277132 -115.162752 255 38045ft 466kts
02-Jul-18 09:58 34.249745 -115.288955 256 38086ft 465kts
02-Jul-18 09:59 34.218213 -115.436935 256 38149ft 464kts
02-Jul-18 10:00 34.185861 -115.587465 256 38148ft 464kts
02-Jul-18 10:01 34.160139 -115.727697 264 38149ft 463kts
02-Jul-18 10:02 34.145622 -115.878471 264 38118ft 464kts
02-Jul-18 10:03 34.130627 -116.031768 264 36866ft 459kts
02-Jul-18 10:04 34.115544 -116.185036 264 34244ft 460kts
02-Jul-18 10:05 34.100183 -116.337485 263 31601ft 462kts
02-Jul-18 10:06 34.083689 -116.490883 263 29136ft 455kts
02-Jul-18 10:07 34.068286 -116.638413 264 27295ft 436kts
02-Jul-18 10:08 34.055992 -116.772532 263 25362ft 424kts
02-Jul-18 10:09 34.042601 -116.907789 260 22460ft 398kts
02-Jul-18 10:10 34.025697 -117.038127 260 20299ft 390kts
02-Jul-18 10:11 34.010715 -117.164993 261 18360ft 376kts
02-Jul-18 10:12 33.996152 -117.287031 261 16272ft 364kts
02-Jul-18 10:13 33.982129 -117.405833 261 14210ft 352kts
02-Jul-18 10:14 33.977772 -117.519343 282 12520ft 332kts
02-Jul-18 10:15 33.996745 -117.625782 282 10788ft 321kts
02-Jul-18 10:16 34.002609 -117.726311 262 9711ft 294kts
02-Jul-18 10:17 33.993666 -117.817539 262 8779ft 252kts
02-Jul-18 10:18 33.985979 -117.896400 262 8188ft 228kts
02-Jul-18 10:19 33.978618 -117.971456 262 7255ft 225kts
02-Jul-18 10:20 33.971288 -118.045594 262 6351ft 222kts
02-Jul-18 10:21 33.964953 -118.119713 263 4947ft 232kts
02-Jul-18 10:22 33.956991 -118.193869 263 3178ft 211kts
02-Jul-18 10:23 33.950403 -118.257171 263 2224ft 173kts
02-Jul-18 10:24 33.945276 -118.306547 263 1370ft 140kts
02-Jul-18 10:25 33.940793 -118.349852 263 703ft 138kts
02-Jul-18 10:26 33.936189 -118.394320 263 136ft 106kts
02-Jul-18 10:27 33.935769 -118.405795 293 136ft 0kts
02-Jul-18 10:28 33.935769 -118.405795 293 136ft 0kts
02-Jul-18 10:29 33.936689 -118.408932 347 136ft 17kts
02-Jul-18 10:30 33.938396 -118.403835 83 136ft 23kts
02-Jul-18 10:31 33.939938 -118.398180 345 136ft 14kts
02-Jul-18 10:32 33.940979 -118.397610 75 136ft 0kts

Navigation Log

Ident Type
Flight plan parsing failed, navigation log unavailable